Aviation Digital Data Service (ADDS)

Output produced by TAFs form (0658 UTC 24 October 2014)
found at http://www.aviationweather.gov/adds/tafs/
 
KABE 240535Z 2406/2506 33010KT P6SM BKN025 OVC060 
     FM241400 32012G22KT P6SM FEW025 BKN060 
     FM242200 31005KT P6SM BKN200